Stations météo

réclame
Mon MeteoGroup
Ayamonte, Espagne (8381): Température de l'air & dewpoint: 13.10.2017 14:00:00 - 19.10.2017 14:00:00 (CEST)Ayamonte, Espagne (8381): Vitesse du vent & gusts: 13.10.2017 14:00:00 - 19.10.2017 14:00:00 (CEST)Ayamonte, Espagne (8381): Direction du vent: 13.10.2017 14:00:00 - 19.10.2017 14:00:00 (CEST)Ayamonte, Espagne (8381): reduced air pressure: 13.10.2017 14:00:00 - 19.10.2017 14:00:00 (CEST)Ayamonte, Espagne (8381): Quantités de précipitations: 13.10.2017 14:00:00 - 19.10.2017 14:00:00 (CEST)
Date & Time tt [°C] td [°C] ff [km/h] ff [knt] fx [km/h] fx [knt] dd ppp [hPa] rr [mm]
19.10.2017 14:00:00 20,5 15,9 5 3 17 9 NW 1015,3 -
19.10.2017 13:00:00 20,0 16,2 8 5 18 10 NW 1015,2 0,1
19.10.2017 12:00:00 19,4 18,4 1 1 10 5 N 1014,6 0,0
19.10.2017 11:00:00 18,8 18,6 1 1 5 3 ENE 1013,6 0,0
19.10.2017 10:00:00 18,0 17,9 0 0 5 3 N 1013,2 0,0
19.10.2017 09:00:00 17,1 17,0 1 1 4 2 WNW 1012,6 0,0
19.10.2017 08:00:00 16,7 16,6 1 1 4 2 NW 1011,9 -
19.10.2017 07:00:00 16,4 16,2 0 0 1 1 WSW 1011,2 0,0
19.10.2017 06:00:00 16,0 15,9 0 0 4 2 N 1010,9 0,0
19.10.2017 05:00:00 16,5 16,3 0 0 5 3 ENE 1010,7 0,0
19.10.2017 04:00:00 16,2 16,0 1 0 5 3 NW 1011,1 0,0
19.10.2017 03:00:00 16,2 16,0 4 2 14 8 NE 1011,1 0,8
19.10.2017 02:00:00 16,2 16,0 8 4 16 9 ENE 1011,2 -
19.10.2017 01:00:00 16,6 16,5 6 3 12 6 ENE 1012,4 0,6
19.10.2017 00:00:00 16,9 16,4 2 1 11 6 NNE 1013,1 0,6
18.10.2017 23:00:00 18,0 16,6 4 2 15 8 NNW 1012,9 0,3
18.10.2017 22:00:00 18,8 17,5 8 5 18 10 W 1013,3 0,2
18.10.2017 21:00:00 20,0 18,2 13 7 26 14 WSW 1012,6 0,0
18.10.2017 20:00:00 20,2 17,2 10 5 29 16 WSW 1012,2 -
18.10.2017 19:00:00 20,6 16,8 11 6 28 15 WSW 1012,1 0,0
18.10.2017 18:00:00 20,6 17,1 15 8 34 18 SW 1011,7 0,0
18.10.2017 17:00:00 21,4 16,6 18 10 33 18 SW 1012,3 0,0
18.10.2017 16:00:00 22,3 17,2 15 8 27 15 SW 1012,4 0,0
18.10.2017 15:00:00 21,2 16,0 16 8 29 15 SW 1013,5 0,0
18.10.2017 14:00:00 21,9 16,1 7 4 22 12 WSW 1013,8 -
18.10.2017 13:00:00 20,2 14,5 0 0 10 5 ENE 1014,5 0,0
18.10.2017 12:00:00 19,8 15,0 3 1 12 6 SSW 1014,6 0,1
18.10.2017 11:00:00 18,7 17,5 3 2 5 3 WSW 1014,8 0,0
18.10.2017 10:00:00 17,8 17,1 1 0 6 4 NW 1014,1 0,0
18.10.2017 09:00:00 17,2 16,6 0 0 12 7 NW 1013,6 0,0
18.10.2017 08:00:00 17,0 16,6 7 4 18 10 W 1013,5 -
18.10.2017 07:00:00 17,2 16,7 4 2 22 12 W 1013,6 0,0
18.10.2017 06:00:00 17,7 17,2 12 7 30 16 W 1013,6 0,1
18.10.2017 05:00:00 18,2 17,9 9 5 18 10 WSW 1014,1 1,0
18.10.2017 04:00:00 18,7 17,2 0 0 7 4 NNW 1014,4 0,7
18.10.2017 03:00:00 19,0 16,6 3 2 21 12 WNW 1015,0 0,0
18.10.2017 02:00:00 19,6 17,0 10 5 21 11 W 1015,7 -
18.10.2017 01:00:00 20,0 17,2 9 5 25 13 WSW 1016,1 0,0
18.10.2017 00:00:00 19,9 16,7 8 4 19 10 W 1016,6 0,0
17.10.2017 23:00:00 19,9 16,3 8 5 25 13 W 1016,8 0,0
17.10.2017 22:00:00 20,1 15,5 13 7 29 15 WSW 1016,6 0,0
17.10.2017 21:00:00 20,8 16,0 17 9 32 18 WSW 1016,8 0,0
17.10.2017 20:00:00 - - - - - - - - -
17.10.2017 19:00:00 - - - - - - - - -
17.10.2017 18:00:00 - - - - - - - - -
17.10.2017 17:00:00 - - - - - - - - -
17.10.2017 16:00:00 - - - - - - - - -
17.10.2017 15:00:00 - - - - - - - - -
17.10.2017 14:00:00 - - - - - - - - -
17.10.2017 13:00:00 - - - - - - - - -
17.10.2017 12:00:00 - - - - - - - - -
17.10.2017 11:00:00 20,7 20,1 3 1 11 6 NNE 1019,0 4,9
17.10.2017 10:00:00 21,2 20,5 4 2 14 8 W 1019,0 0,0
17.10.2017 09:00:00 21,1 20,6 7 4 15 8 W 1018,4 0,0
17.10.2017 08:00:00 21,3 21,0 8 4 14 8 SW 1018,6 -
17.10.2017 07:00:00 20,8 20,5 5 3 13 7 SW 1017,9 0,0
17.10.2017 06:00:00 21,3 21,0 5 3 29 16 SW 1018,0 0,0
17.10.2017 05:00:00 22,2 21,9 13 7 24 13 SSW 1018,2 0,0
17.10.2017 04:00:00 22,1 21,3 13 7 25 14 S 1018,8 0,0
17.10.2017 03:00:00 22,1 21,3 18 10 27 15 S 1019,2 0,0
17.10.2017 02:00:00 22,1 21,1 16 8 26 14 S 1019,6 -
17.10.2017 01:00:00 22,2 20,9 14 8 29 16 S 1019,8 0,0
17.10.2017 00:00:00 22,2 20,5 11 6 27 15 SSE 1020,0 0,0
16.10.2017 23:00:00 22,4 20,5 14 8 27 15 SSE 1020,0 0,0
16.10.2017 22:00:00 22,5 20,4 14 8 27 14 SSE 1019,6 0,0
16.10.2017 21:00:00 22,6 20,3 12 6 24 13 SSE 1019,5 0,0
16.10.2017 20:00:00 22,7 20,1 13 7 26 14 SSE 1019,4 -
16.10.2017 19:00:00 22,9 20,3 11 6 26 14 S 1019,6 0,0
16.10.2017 18:00:00 23,3 20,1 12 7 27 14 SSE 1019,8 0,0
16.10.2017 17:00:00 23,8 19,5 15 8 40 22 SSE 1020,1 0,0
16.10.2017 16:00:00 24,6 19,6 12 7 28 15 SSE 1020,5 0,0
16.10.2017 15:00:00 23,9 19,0 13 7 25 13 SE 1020,8 0,0
16.10.2017 14:00:00 23,8 19,5 11 6 22 12 SE 1021,5 -
16.10.2017 13:00:00 23,6 18,7 12 7 23 12 SSE 1021,7 0,0
16.10.2017 12:00:00 23,4 17,9 11 6 19 10 SSE 1021,9 0,0
16.10.2017 11:00:00 21,9 14,0 4 2 9 5 ENE 1021,2 0,0
16.10.2017 10:00:00 20,4 16,2 3 1 21 12 NE 1020,7 0,0
16.10.2017 09:00:00 17,5 15,0 0 0 8 4 S 1020,2 0,0
16.10.2017 08:00:00 18,0 15,6 6 4 13 7 E 1019,6 -
16.10.2017 07:00:00 17,4 16,0 1 1 5 3 N 1019,4 0,0
16.10.2017 06:00:00 18,4 17,1 0 0 5 3 ENE 1019,2 0,0
16.10.2017 05:00:00 19,5 17,3 1 0 10 5 NE 1018,8 0,0
16.10.2017 04:00:00 20,5 17,3 4 2 18 10 SE 1019,0 0,0
16.10.2017 03:00:00 21,6 18,0 10 5 21 12 ESE 1018,9 0,0
16.10.2017 02:00:00 20,8 17,6 1 1 10 5 SE 1019,8 -
16.10.2017 01:00:00 21,5 17,7 7 4 14 8 ESE 1019,7 0,0
16.10.2017 00:00:00 22,4 17,5 7 4 21 11 SE 1019,3 0,0
15.10.2017 23:00:00 22,7 17,4 12 6 23 12 ESE 1018,8 0,0
15.10.2017 22:00:00 22,2 16,9 3 2 25 14 W 1018,7 0,0
15.10.2017 21:00:00 24,1 17,1 8 4 31 17 SE 1018,0 0,0
15.10.2017 20:00:00 24,8 17,3 14 8 31 17 SE 1017,5 -
15.10.2017 19:00:00 25,8 17,5 14 7 29 16 SE 1017,6 0,0
15.10.2017 18:00:00 26,7 18,5 9 5 24 13 SSE 1017,8 0,0
15.10.2017 17:00:00 27,5 18,2 9 5 23 13 SSE 1018,1 0,0
15.10.2017 16:00:00 27,9 17,5 10 6 24 13 SE 1018,6 0,0
15.10.2017 15:00:00 28,1 17,0 8 4 22 12 ESE 1019,4 0,0
15.10.2017 14:00:00 26,8 16,1 8 4 20 11 SE 1020,2 -
15.10.2017 13:00:00 26,1 15,2 8 5 26 14 ESE 1020,7 0,0
15.10.2017 12:00:00 24,9 14,6 10 6 23 12 ESE 1020,9 0,0
15.10.2017 11:00:00 23,7 14,7 7 4 15 8 E 1020,8 0,0
15.10.2017 10:00:00 20,5 15,1 4 2 9 5 ENE 1020,7 0,0
15.10.2017 09:00:00 17,6 13,6 3 1 7 4 NE 1020,1 0,0
15.10.2017 08:00:00 17,5 14,4 1 1 5 3 N 1019,9 -
15.10.2017 07:00:00 18,0 14,7 0 0 8 4 NE 1020,0 0,0
15.10.2017 06:00:00 18,7 15,3 5 3 8 4 ENE 1019,7 0,0
15.10.2017 05:00:00 19,5 16,0 2 1 5 3 NE 1019,7 0,0
15.10.2017 04:00:00 20,2 16,0 0 0 8 5 WNW 1020,1 0,0
15.10.2017 03:00:00 19,7 15,3 1 1 6 4 WNW 1020,4 0,0
15.10.2017 02:00:00 20,1 15,1 0 0 7 4 NW 1020,6 -
15.10.2017 01:00:00 20,0 15,3 1 1 4 2 NNW 1021,0 0,0
15.10.2017 00:00:00 21,4 15,7 2 1 8 4 NE 1021,1 0,0
14.10.2017 23:00:00 21,9 15,3 0 0 6 3 N 1021,1 0,0
14.10.2017 22:00:00 21,8 13,7 1 1 6 3 WNW 1020,7 0,0
14.10.2017 21:00:00 22,8 13,1 1 1 7 4 SW 1020,7 0,0
14.10.2017 20:00:00 24,7 13,0 1 0 9 5 WSW 1020,5 -
14.10.2017 19:00:00 27,0 13,8 1 1 10 5 S 1020,6 0,0
14.10.2017 18:00:00 27,2 14,6 4 2 9 5 WSW 1020,6 0,0
14.10.2017 17:00:00 27,1 15,2 4 2 14 8 SSW 1020,5 0,0
14.10.2017 16:00:00 27,1 14,8 7 4 14 7 S 1020,5 0,0
14.10.2017 15:00:00 28,3 14,5 8 5 15 8 S 1020,9 0,0
14.10.2017 14:00:00 29,1 15,3 6 3 14 7 ESE 1021,4 -
14.10.2017 13:00:00 28,6 15,9 6 3 14 8 ESE 1022,0 0,0
14.10.2017 12:00:00 26,0 15,3 0 0 5 3 NE 1022,1 0,0
14.10.2017 11:00:00 23,1 14,9 1 0 5 3 NNW 1022,2 0,0
14.10.2017 10:00:00 20,0 15,3 1 1 6 3 WNW 1021,8 0,0
14.10.2017 09:00:00 19,0 14,0 3 2 15 8 N 1021,1 0,0
14.10.2017 08:00:00 18,6 13,3 3 1 14 8 ENE 1020,7 -
14.10.2017 07:00:00 19,5 14,3 4 2 11 6 N 1020,9 0,0
14.10.2017 06:00:00 18,6 14,2 5 3 14 7 W 1020,9 0,0
14.10.2017 05:00:00 19,2 15,7 3 2 6 4 NNW 1020,8 0,0
14.10.2017 04:00:00 19,0 15,4 1 1 6 3 NE 1021,2 0,0
14.10.2017 03:00:00 18,5 15,7 0 0 7 4 NW 1021,5 0,0
14.10.2017 02:00:00 18,5 16,1 3 1 6 3 NW 1021,6 -
14.10.2017 01:00:00 18,8 16,4 1 1 4 2 NE 1021,7 0,0
14.10.2017 00:00:00 19,3 16,7 0 0 3 2 N 1021,9 0,0
13.10.2017 23:00:00 19,5 16,3 0 0 2 1 N 1022,0 0,0
13.10.2017 22:00:00 20,5 16,3 0 0 3 2 N 1021,7 0,0
13.10.2017 21:00:00 22,0 15,6 0 0 5 3 N 1021,6 0,0
13.10.2017 20:00:00 24,2 13,8 3 1 6 4 S 1021,2 -
13.10.2017 19:00:00 25,9 12,3 6 3 11 6 SSW 1021,2 0,0
13.10.2017 18:00:00 27,5 11,6 6 4 13 7 SSW 1021,1 0,0
13.10.2017 17:00:00 28,4 11,4 8 5 17 9 S 1021,3 0,0
13.10.2017 16:00:00 29,4 11,9 9 5 16 9 S 1021,6 0,0
13.10.2017 15:00:00 29,3 12,2 8 4 17 9 SE 1022,1 0,0
13.10.2017 14:00:00 28,6 13,7 6 3 14 8 E 1022,7 -

tt = Température de l'air
td = dewpoint
ff = Vitesse du vent
fx = gusts
dd = Direction du vent
ppp = reduced air pressure
rr = Quantités de précipitations

stations d'obs. à proximité